Flight Track Log - Related Links

Times and Time Zones

All times are in EST time to prevent confusion due to time zone crossing. See the N884FT flight status page for this flight to view local times or setup timezone preferences in your user account.

Time Position Orientation Groundspeed Altitude Reporting Facility
EST Latitude Longitude Course Direction KTS MPH feet Rate Location/Type
Mon 10:08:18 PM 28.1000 -80.6500 270° West 66 76 600  Level Orlando TRACON
Mon 10:09:18 PM 28.1000 -80.6833 265° West 84 97 1,600 524 Climbing Orlando TRACON
Mon 10:10:24 PM 28.1000 -80.7167 270° West 117 135 1,700 429 Climbing Orlando TRACON
Mon 10:11:24 PM 28.1000 -80.7500 270° West 91 105 2,500 632 Climbing Orlando TRACON
Mon 10:12:18 PM 28.0667 -80.7667 204° Southwest 115 132 2,900 531 Climbing Orlando TRACON
Mon 10:13:51 PM 28.0319 -80.7897 210° Southwest 108 124 3,800 592 Climbing Miami Center
Mon 10:14:50 PM 28.0086 -80.8053 210° Southwest 113 130 4,400 600 Climbing Miami Center
Mon 10:15:51 PM 27.9808 -80.8208 206° Southwest 113 130 5,000 559 Climbing Miami Center
Mon 10:16:48 PM 27.9517 -80.8269 190° South 119 137 5,500 458 Climbing Miami Center
Mon 10:17:49 PM 27.9119 -80.8256 178° South 119 137 5,900 250 Climbing Miami Center
Mon 10:18:48 PM 27.8725 -80.8194 172° South 132 152 6,000 50 Climbing Miami Center
Mon 10:19:49 PM 27.8369 -80.8158 175° South 142 163 6,000  Level Miami Center
Mon 10:20:48 PM 27.7892 -80.8094 173° South 148 170 6,000  Level Miami Center
Mon 10:21:50 PM 27.7456 -80.8033 173° South 153 176 6,000  Level Miami Center
Mon 10:22:50 PM 27.7019 -80.7994 175° South 159 183 6,000  Level Miami Center
Mon 10:23:51 PM 27.6644 -80.7933 172° South 159 183 6,000  Level Miami Center
Mon 10:24:51 PM 27.6208 -80.7894 175° South 159 183 6,000  Level Miami Center
Mon 10:26:01 PM 27.5728 -80.7833 174° South 159 183 6,000  Level Miami Center
Mon 10:27:01 PM 27.5208 -80.7767 174° South 159 183 6,000  Level Miami Center
Mon 10:28:02 PM 27.4772 -80.7706 173° South 159 183 6,000  Level Miami Center
Mon 10:29:02 PM 27.4375 -80.7669 175° South 159 183 6,000  Level Miami Center
Mon 10:30:01 PM 27.3939 -80.7608 173° South 159 183 6,000  Level Miami Center
Mon 10:31:02 PM 27.3461 -80.7569 176° South 159 183 6,000  Level Miami Center
Mon 10:32:02 PM 27.3025 -80.7506 173° South 159 183 6,000  Level Miami Center
Mon 10:33:01 PM 27.2586 -80.7444 173° South 159 183 6,000  Level Miami Center
Mon 10:34:01 PM 27.2192 -80.7408 175° South 159 183 6,000  Level Miami Center
Mon 10:35:00 PM 27.1692 -80.7344 174° South 159 183 6,000  Level Miami Center
Mon 10:36:01 PM 27.1256 -80.7308 176° South 159 183 6,000  Level Miami Center
Mon 10:37:02 PM 27.0842 -80.7153 161° South 159 183 6,000  Level Miami Center
Mon 10:38:02 PM 27.0492 -80.6908 148° Southeast 159 183 6,000  Level Miami Center
Mon 10:40:00 PM 26.9632 -80.7079 174° South  Level FlightAware Approximate
Mon 10:47:00 PM 26.7053 -80.5910 127° Southeast  Level FlightAware Approximate
Mon 10:48:00 PM 26.6797 -80.5525 127° Southeast  Level FlightAware Approximate
Mon 10:49:00 PM 26.6540 -80.5140 127° Southeast  Level FlightAware Approximate
Mon 10:50:00 PM 26.6283 -80.4755 127° Southeast  Level FlightAware Approximate
Mon 10:51:00 PM 26.6027 -80.4370 127° Southeast  Level FlightAware Approximate
Mon 10:52:00 PM 26.5770 -80.3986 127° Southeast  Level FlightAware Approximate
Mon 10:53:00 PM 26.5513 -80.3602 127° Southeast  Level FlightAware Approximate
Mon 10:54:00 PM 26.5247 -80.3225 132° Southeast  Level FlightAware Approximate
Mon 10:55:00 PM 26.4961 -80.2868 132° Southeast  Level FlightAware Approximate
Mon 10:56:00 PM 26.4675 -80.2510 132° Southeast  Level FlightAware Approximate
Mon 10:57:00 PM 26.4418 -80.2126 127° Southeast  Level FlightAware Approximate
Mon 10:58:00 PM 26.4193 -80.1719 119° Southeast  Level FlightAware Approximate
Mon 10:59:00 PM 26.3984 -80.1301 119° Southeast  Level FlightAware Approximate
Mon 11:00:00 PM 26.3785 -80.1077 180° South  Level Estimated

Login

Don't have an account? Register now (free) for customized features, flight alerts, and more!